createdAt,value
2019-03-10T00:00:28.199Z,100349.05
2019-03-10T00:02:56.656Z,100352.05
2019-03-10T00:05:25.197Z,100342.77
2019-03-10T00:07:53.779Z,100349.34
2019-03-10T00:10:22.338Z,100341.82
2019-03-10T00:12:51.072Z,100338.73
2019-03-10T00:15:19.617Z,100349.93
2019-03-10T00:17:48.453Z,100350.24
2019-03-10T00:20:17.263Z,100344.88
2019-03-10T00:22:46.022Z,100346.75
2019-03-10T00:25:14.533Z,100354.45
2019-03-10T00:27:43.049Z,100351.47
2019-03-10T00:30:14.400Z,100346.52
2019-03-10T00:32:42.999Z,100338.88
2019-03-10T00:35:11.623Z,100344.66
2019-03-10T00:37:40.455Z,100358.79
2019-03-10T00:40:38.932Z,100366.83
2019-03-10T00:43:43.432Z,100362.41
2019-03-10T00:46:31.022Z,100369.48
2019-03-10T00:49:11.291Z,100360.38
2019-03-10T00:52:06.182Z,100369.84
2019-03-10T00:54:34.646Z,100357.88
2019-03-10T00:57:03.338Z,100360.38
2019-03-10T00:59:32.191Z,100365.03
2019-03-10T01:02:00.763Z,100355.87
2019-03-10T01:04:29.331Z,100346.89
2019-03-10T01:06:57.789Z,100366.43
2019-03-10T01:09:26.240Z,100349.53
2019-03-10T01:11:54.785Z,100348.41
2019-03-10T01:14:23.554Z,100344.86
2019-03-10T01:16:52.040Z,100349.80
2019-03-10T01:19:20.877Z,100347.84
2019-03-10T01:21:49.669Z,100345.84
2019-03-10T01:24:18.119Z,100341.19
2019-03-10T01:26:46.651Z,100339.34
2019-03-10T01:29:15.159Z,100337.97
2019-03-10T01:32:09.306Z,100332.03
2019-03-10T01:34:58.680Z,100326.08
2019-03-10T01:37:27.160Z,100336.14
2019-03-10T01:39:55.716Z,100318.47
2019-03-10T01:42:24.313Z,100315.50
2019-03-10T01:44:53.027Z,100301.16
2019-03-10T01:47:21.547Z,100302.95
2019-03-10T01:49:50.039Z,100309.36
2019-03-10T01:52:18.560Z,100313.38
2019-03-10T01:54:47.300Z,100313.52
2019-03-10T01:57:15.866Z,100302.63
2019-03-10T01:59:44.352Z,100304.56
2019-03-10T02:02:12.839Z,100302.14
2019-03-10T02:04:41.380Z,100309.36
2019-03-10T02:07:09.865Z,100310.66
2019-03-10T02:09:38.373Z,100300.45
2019-03-10T02:12:06.979Z,100292.67
2019-03-10T02:14:35.529Z,100294.82
2019-03-10T02:17:03.958Z,100299.69
2019-03-10T02:19:32.706Z,100295.72
2019-03-10T02:22:01.139Z,100292.08
2019-03-10T02:24:29.624Z,100292.42
2019-03-10T02:26:58.103Z,100300.52
2019-03-10T02:29:29.284Z,100293.97
2019-03-10T02:31:57.777Z,100298.34
2019-03-10T02:34:26.145Z,100294.38
2019-03-10T02:36:54.620Z,100288.77
2019-03-10T02:39:23.074Z,100283.81
2019-03-10T02:41:51.555Z,100271.42
2019-03-10T02:44:20.301Z,100281.51
2019-03-10T02:46:48.922Z,100268.31
2019-03-10T02:49:17.309Z,100263.84
2019-03-10T02:51:46.016Z,100260.39
2019-03-10T02:54:14.436Z,100262.20
2019-03-10T02:56:42.887Z,100266.00
2019-03-10T02:59:11.616Z,100261.02
2019-03-10T03:01:40.066Z,100256.55
2019-03-10T03:04:08.660Z,100261.02
2019-03-10T03:06:37.246Z,100261.02
2019-03-10T03:09:06.446Z,100256.08
2019-03-10T03:11:35.214Z,100251.97
2019-03-10T03:14:05.673Z,100246.83
2019-03-10T03:16:34.210Z,100243.48
2019-03-10T03:19:02.676Z,100247.32
2019-03-10T03:21:42.118Z,100230.95
2019-03-10T03:24:01.617Z,100216.56
2019-03-10T03:26:30.148Z,100222.70
2019-03-10T03:28:58.685Z,100225.18
2019-03-10T03:31:27.228Z,100229.92
2019-03-10T03:33:55.742Z,100238.52
2019-03-10T03:36:30.049Z,100235.89
2019-03-10T03:39:07.329Z,100237.22
2019-03-10T03:41:35.769Z,100232.62
2019-03-10T03:44:04.296Z,100234.59
2019-03-10T03:46:32.777Z,100233.27
2019-03-10T03:49:01.217Z,100223.87
2019-03-10T03:51:29.711Z,100216.44
2019-03-10T03:53:58.237Z,100215.67
2019-03-10T03:56:26.629Z,100217.76
2019-03-10T03:58:55.086Z,100216.09
2019-03-10T04:01:25.230Z,100209.67
2019-03-10T04:03:53.796Z,100209.55
2019-03-10T04:06:22.328Z,100202.64
2019-03-10T04:08:50.839Z,100216.35
2019-03-10T04:11:19.329Z,100212.59
2019-03-10T04:13:47.842Z,100209.61
2019-03-10T04:16:16.368Z,100218.16
2019-03-10T04:18:44.906Z,100220.17
2019-03-10T04:21:13.454Z,100217.55
2019-03-10T04:23:41.989Z,100215.56
2019-03-10T04:26:10.450Z,100216.89
2019-03-10T04:28:38.950Z,100222.83
2019-03-10T04:31:07.406Z,100205.48
2019-03-10T04:33:35.853Z,100207.95
2019-03-10T04:36:04.466Z,100208.96
2019-03-10T04:38:33.130Z,100208.27
2019-03-10T04:41:01.503Z,100218.50
2019-03-10T04:43:30.012Z,100218.84
2019-03-10T04:45:58.545Z,100225.80
2019-03-10T04:48:27.053Z,100215.86
2019-03-10T04:50:55.484Z,100217.19
2019-03-10T04:53:23.935Z,100211.60
2019-03-10T04:55:57.032Z,100220.85
2019-03-10T04:58:26.001Z,100223.87
2019-03-10T05:00:56.207Z,100231.15
2019-03-10T05:03:24.692Z,100223.17
2019-03-10T05:05:53.294Z,100221.36
2019-03-10T05:08:21.797Z,100224.34
2019-03-10T05:10:50.466Z,100223.87
2019-03-10T05:13:19.010Z,100230.33
2019-03-10T05:15:47.456Z,100228.66
2019-03-10T05:18:15.953Z,100227.84
2019-03-10T05:20:44.464Z,100218.14
2019-03-10T05:23:29.719Z,100221.48
2019-03-10T05:25:58.251Z,100210.70
2019-03-10T05:28:27.083Z,100204.28
2019-03-10T05:30:55.660Z,100211.59
2019-03-10T05:33:24.225Z,100209.77
2019-03-10T05:35:52.725Z,100207.28
2019-03-10T05:38:21.190Z,100203.51
2019-03-10T05:40:49.647Z,100203.85
2019-03-10T05:43:18.273Z,100201.20
2019-03-10T05:45:46.818Z,100193.23
2019-03-10T05:48:15.522Z,100196.20
2019-03-10T05:50:44.018Z,100187.11
2019-03-10T05:53:12.656Z,100191.56
2019-03-10T05:55:41.136Z,100178.72
2019-03-10T05:58:09.597Z,100179.72
2019-03-10T06:00:42.529Z,100180.20
2019-03-10T06:03:08.420Z,100174.91
2019-03-10T06:05:36.939Z,100170.95
2019-03-10T06:08:05.451Z,100168.50
2019-03-10T06:10:34.066Z,100164.87
2019-03-10T06:13:02.439Z,100160.41
2019-03-10T06:15:31.081Z,100155.27
2019-03-10T06:17:59.619Z,100159.73
2019-03-10T06:20:28.029Z,100155.08
2019-03-10T06:22:56.478Z,100150.28
2019-03-10T06:25:24.985Z,100149.98
2019-03-10T06:27:53.590Z,100149.00
2019-03-10T06:30:22.119Z,100146.20
2019-03-10T06:32:50.602Z,100153.30
2019-03-10T06:35:19.292Z,100147.03
2019-03-10T06:37:47.858Z,100152.36
2019-03-10T06:40:16.372Z,100145.78
2019-03-10T06:42:44.825Z,100135.27
2019-03-10T06:45:13.390Z,100130.30
2019-03-10T06:47:41.830Z,100130.02
2019-03-10T06:50:12.462Z,100126.72
2019-03-10T06:52:41.076Z,100127.36
2019-03-10T06:55:09.590Z,100137.52
2019-03-10T06:57:38.077Z,100128.25
2019-03-10T07:00:10.021Z,100126.77
2019-03-10T07:02:38.515Z,100128.06
2019-03-10T07:05:09.322Z,100127.91
2019-03-10T07:07:38.017Z,100127.08
2019-03-10T07:10:12.306Z,100120.45
2019-03-10T07:12:41.375Z,100118.81
2019-03-10T07:15:11.619Z,100125.28
2019-03-10T07:17:40.115Z,100115.18
2019-03-10T07:20:17.564Z,100116.83
2019-03-10T07:22:46.510Z,100114.19
2019-03-10T07:25:15.850Z,100110.05
2019-03-10T07:27:51.629Z,100103.28
2019-03-10T07:30:30.655Z,100101.63
2019-03-10T07:33:18.729Z,100103.62
2019-03-10T07:35:48.794Z,100109.41
2019-03-10T07:38:18.908Z,100096.31
2019-03-10T07:40:51.618Z,100096.97
2019-03-10T07:43:21.707Z,100097.81
2019-03-10T07:45:54.502Z,100098.79
2019-03-10T07:48:27.335Z,100094.66
2019-03-10T07:50:57.436Z,100088.34
2019-03-10T07:53:30.341Z,100081.02
2019-03-10T07:56:12.629Z,100084.00
2019-03-10T07:58:42.732Z,100083.81
2019-03-10T08:01:28.800Z,100081.80
2019-03-10T08:04:16.935Z,100070.53
2019-03-10T08:07:02.202Z,100068.73
2019-03-10T08:09:32.557Z,100058.23
2019-03-10T08:12:18.611Z,100052.08
2019-03-10T08:14:49.062Z,100044.05
2019-03-10T08:17:25.099Z,100046.66
2019-03-10T08:20:00.658Z,100043.35
2019-03-10T08:22:33.815Z,100038.62
2019-03-10T08:25:03.937Z,100036.63
2019-03-10T08:27:40.230Z,100026.55
2019-03-10T08:30:29.412Z,100025.19
2019-03-10T08:33:17.580Z,100019.84
2019-03-10T08:35:59.290Z,100015.64
2019-03-10T08:38:41.321Z,100000.70
2019-03-10T08:41:11.470Z,99988.91
2019-03-10T08:43:41.572Z,99988.99
2019-03-10T08:46:11.667Z,99991.38
2019-03-10T08:48:44.628Z,99977.81
2019-03-10T08:51:17.452Z,99974.75
2019-03-10T08:53:56.685Z,99981.47
2019-03-10T08:56:32.995Z,99979.81
2019-03-10T08:59:11.664Z,99977.36
2019-03-10T09:01:53.639Z,99971.05
2019-03-10T09:04:23.811Z,99973.90
2019-03-10T09:06:53.916Z,99971.80
2019-03-10T09:09:29.671Z,99958.23
2019-03-10T09:12:19.031Z,99964.88
2019-03-10T09:14:52.202Z,99952.27
2019-03-10T09:17:30.960Z,99959.56
2019-03-10T09:20:01.190Z,99953.97
2019-03-10T09:22:37.554Z,99945.08
2019-03-10T09:25:07.930Z,99934.05
2019-03-10T09:27:56.506Z,99929.17
2019-03-10T09:30:44.831Z,99925.73
2019-03-10T09:33:17.368Z,99921.58
2019-03-10T09:35:50.688Z,99912.45
2019-03-10T09:38:20.874Z,99911.50
2019-03-10T09:40:56.467Z,99906.54
2019-03-10T09:43:34.187Z,99903.20
2019-03-10T09:46:10.092Z,99892.19
2019-03-10T09:48:56.716Z,99888.50
2019-03-10T09:51:26.905Z,99881.14
2019-03-10T09:53:56.967Z,99877.11
2019-03-10T09:56:27.094Z,99882.80
2019-03-10T09:59:00.454Z,99874.13
2019-03-10T10:01:46.826Z,99866.48
2019-03-10T10:04:19.587Z,99857.60
2019-03-10T10:06:54.818Z,99860.37
2019-03-10T10:09:33.615Z,99851.71
2019-03-10T10:12:13.288Z,99842.01
2019-03-10T10:14:50.142Z,99830.76
2019-03-10T10:17:25.989Z,99830.11
2019-03-10T10:20:11.201Z,99840.02
2019-03-10T10:22:44.589Z,99829.89
2019-03-10T10:25:29.701Z,99823.97
2019-03-10T10:27:59.910Z,99819.80
2019-03-10T10:30:46.095Z,99803.95
2019-03-10T10:33:22.005Z,99801.34
2019-03-10T10:35:57.838Z,99797.31
2019-03-10T10:38:27.929Z,99789.73
2019-03-10T10:41:14.883Z,99784.95
2019-03-10T10:43:47.818Z,99777.70
2019-03-10T10:46:17.974Z,99770.08
2019-03-10T10:48:56.860Z,99774.21
2019-03-10T10:51:29.947Z,99770.02
2019-03-10T10:54:00.213Z,99764.91
2019-03-10T10:56:46.008Z,99763.09
2019-03-10T10:59:21.913Z,99760.78
2019-03-10T11:01:55.036Z,99760.39
2019-03-10T11:04:27.832Z,99758.23
2019-03-10T11:07:03.593Z,99757.09
2019-03-10T11:09:36.497Z,99758.59
2019-03-10T11:12:15.269Z,99749.30
2019-03-10T11:14:45.396Z,99737.68
2019-03-10T11:17:18.465Z,99723.83
2019-03-10T11:19:48.683Z,99725.74
2019-03-10T11:22:28.148Z,99726.02
2019-03-10T11:25:13.327Z,99708.67
2019-03-10T11:27:43.506Z,99701.62
2019-03-10T11:30:23.572Z,99703.20
2019-03-10T11:32:53.847Z,99700.20
2019-03-10T11:35:26.631Z,99694.84
2019-03-10T11:37:56.862Z,99696.55
2019-03-10T11:40:44.908Z,99703.78
2019-03-10T11:43:15.039Z,99697.73
2019-03-10T11:45:50.732Z,99688.17
2019-03-10T11:48:20.856Z,99685.04
2019-03-10T11:51:00.109Z,99676.86
2019-03-10T11:53:36.767Z,99679.13
2019-03-10T11:56:10.027Z,99668.22
2019-03-10T11:58:46.320Z,99662.34
2019-03-10T12:01:16.450Z,99654.95
2019-03-10T12:03:46.708Z,99655.20
2019-03-10T12:06:17.145Z,99644.22
2019-03-10T12:08:47.502Z,99639.55
2019-03-10T12:11:15.920Z,99631.62
2019-03-10T12:13:44.537Z,99623.83
2019-03-10T12:16:12.982Z,99618.95
2019-03-10T12:18:41.492Z,99614.36
2019-03-10T12:21:10.249Z,99612.16
2019-03-10T12:23:38.768Z,99603.00
2019-03-10T12:26:07.300Z,99597.66
2019-03-10T12:28:35.837Z,99591.41
2019-03-10T12:31:04.407Z,99589.53
2019-03-10T12:33:32.946Z,99577.70
2019-03-10T12:36:01.519Z,99573.11
2019-03-10T12:38:30.161Z,99567.80
2019-03-10T12:40:58.562Z,99550.73
2019-03-10T12:43:27.095Z,99546.95
2019-03-10T12:45:55.551Z,99545.13
2019-03-10T12:48:24.023Z,99543.34
2019-03-10T12:50:52.814Z,99538.92
2019-03-10T12:53:21.573Z,99537.46
2019-03-10T12:55:50.180Z,99529.25
2019-03-10T12:58:18.717Z,99534.16
2019-03-10T13:00:47.173Z,99518.63
2019-03-10T13:03:15.673Z,99500.16
2019-03-10T13:05:44.135Z,99487.21
2019-03-10T13:08:13.043Z,99484.48
2019-03-10T13:10:41.462Z,99494.73
2019-03-10T13:13:10.077Z,99501.05
2019-03-10T13:15:38.705Z,99507.33
2019-03-10T13:18:07.634Z,99509.20
2019-03-10T13:20:36.356Z,99502.89
2019-03-10T13:23:05.220Z,99490.98
2019-03-10T13:25:33.800Z,99486.19
2019-03-10T13:28:02.271Z,99487.16
2019-03-10T13:30:30.708Z,99481.59
2019-03-10T13:32:59.160Z,99475.47
2019-03-10T13:35:27.708Z,99475.33
2019-03-10T13:37:56.206Z,99466.79
2019-03-10T13:40:25.707Z,99460.37
2019-03-10T13:42:54.239Z,99463.39
2019-03-10T13:45:23.113Z,99454.42
2019-03-10T13:47:51.629Z,99441.98
2019-03-10T13:50:20.200Z,99446.22
2019-03-10T13:52:48.699Z,99445.33
2019-03-10T13:55:17.513Z,99436.04
2019-03-10T13:57:46.188Z,99423.89
2019-03-10T14:00:25.932Z,99413.03
2019-03-10T14:02:54.424Z,99403.83
2019-03-10T14:05:23.015Z,99400.59
2019-03-10T14:07:51.612Z,99384.64
2019-03-10T14:10:20.224Z,99386.49
2019-03-10T14:12:58.592Z,99388.05
2019-03-10T14:15:27.166Z,99386.38
2019-03-10T14:17:55.625Z,99376.92
2019-03-10T14:20:24.086Z,99359.80
2019-03-10T14:22:52.478Z,99351.30
2019-03-10T14:25:21.056Z,99344.85
2019-03-10T14:27:50.053Z,99339.92
2019-03-10T14:30:19.604Z,99331.98
2019-03-10T14:32:48.094Z,99314.76
2019-03-10T14:35:16.629Z,99302.41
2019-03-10T14:37:45.169Z,99297.49
2019-03-10T14:40:21.340Z,99293.17
2019-03-10T14:42:49.866Z,99285.27
2019-03-10T14:45:18.890Z,99286.06
2019-03-10T14:47:47.443Z,99281.41
2019-03-10T14:50:17.779Z,99289.69
2019-03-10T14:52:46.405Z,99293.43
2019-03-10T14:55:20.642Z,99284.02
2019-03-10T14:57:49.304Z,99292.32
2019-03-10T15:00:22.968Z,99286.14
2019-03-10T15:02:51.568Z,99275.58
2019-03-10T15:05:20.036Z,99283.06
2019-03-10T15:07:48.681Z,99274.06
2019-03-10T15:10:17.210Z,99269.67
2019-03-10T15:12:45.860Z,99257.42
2019-03-10T15:15:22.841Z,99247.95
2019-03-10T15:17:50.676Z,99226.73
2019-03-10T15:20:21.449Z,99216.05
2019-03-10T15:22:49.605Z,99206.00
2019-03-10T15:25:20.144Z,99198.44
2019-03-10T15:27:48.648Z,99208.09
2019-03-10T15:30:18.465Z,99205.45
2019-03-10T15:32:47.070Z,99215.73
2019-03-10T15:35:15.837Z,99218.23
2019-03-10T15:37:44.410Z,99222.66
2019-03-10T15:40:15.084Z,99223.03
2019-03-10T15:42:44.228Z,99214.25
2019-03-10T15:45:15.144Z,99193.81
2019-03-10T15:47:43.660Z,99193.81
2019-03-10T15:50:23.984Z,99189.25
2019-03-10T15:52:52.416Z,99182.02
2019-03-10T15:55:20.970Z,99179.28
2019-03-10T15:57:50.752Z,99176.84
2019-03-10T16:00:21.482Z,99161.64
2019-03-10T16:02:49.995Z,99163.47
2019-03-10T16:05:18.548Z,99154.83
2019-03-10T16:07:46.970Z,99145.95
2019-03-10T16:10:16.022Z,99139.56
2019-03-10T16:12:44.801Z,99138.50
2019-03-10T16:15:19.343Z,99148.90
2019-03-10T16:17:48.750Z,99148.58
2019-03-10T16:20:17.271Z,99148.40
2019-03-10T16:22:45.743Z,99146.89
2019-03-10T16:25:15.847Z,99144.11
2019-03-10T16:27:44.484Z,99151.36
2019-03-10T16:30:20.846Z,99151.19
2019-03-10T16:32:49.939Z,99146.52
2019-03-10T16:35:18.566Z,99150.50
2019-03-10T16:37:47.421Z,99152.33
2019-03-10T16:40:17.834Z,99147.45
2019-03-10T16:42:46.350Z,99156.80
2019-03-10T16:45:25.068Z,99157.80
2019-03-10T16:47:53.842Z,99153.52
2019-03-10T16:50:24.711Z,99149.54
2019-03-10T16:52:53.417Z,99161.96
2019-03-10T16:55:21.920Z,99162.86
2019-03-10T16:57:50.539Z,99166.12
2019-03-10T17:00:22.311Z,99165.30
2019-03-10T17:02:52.034Z,99163.09
2019-03-10T17:05:21.230Z,99168.50
2019-03-10T17:07:49.820Z,99155.91
2019-03-10T17:10:21.423Z,99148.63
2019-03-10T17:12:50.057Z,99143.58
2019-03-10T17:15:20.623Z,99132.14
2019-03-10T17:17:49.227Z,99126.84
2019-03-10T17:20:18.458Z,99124.66
2019-03-10T17:22:47.267Z,99108.85
2019-03-10T17:25:16.355Z,99097.98
2019-03-10T17:27:45.295Z,99100.38
2019-03-10T17:30:17.208Z,99106.03
2019-03-10T17:32:45.853Z,99106.03
2019-03-10T17:35:14.650Z,99117.00
2019-03-10T17:37:43.193Z,99117.67
2019-03-10T17:40:15.081Z,99139.84
2019-03-10T17:42:43.705Z,99162.79
2019-03-10T17:45:16.735Z,99148.00
2019-03-10T17:47:45.238Z,99157.25
2019-03-10T17:50:13.965Z,99165.55
2019-03-10T17:52:42.570Z,99164.73
2019-03-10T17:55:15.366Z,99166.19
2019-03-10T17:57:44.031Z,99157.61
2019-03-10T18:00:18.209Z,99160.47
2019-03-10T18:02:46.822Z,99159.77
2019-03-10T18:05:15.353Z,99163.38
2019-03-10T18:07:43.868Z,99164.29
2019-03-10T18:10:18.946Z,99167.28
2019-03-10T18:12:47.526Z,99170.71
2019-03-10T18:15:17.537Z,99172.73
2019-03-10T18:17:46.237Z,99176.42
2019-03-10T18:20:16.219Z,99183.86
2019-03-10T18:22:44.871Z,99189.69
2019-03-10T18:25:13.793Z,99197.73
2019-03-10T18:27:42.531Z,99203.23
2019-03-10T18:30:17.031Z,99204.22
2019-03-10T18:32:45.610Z,99212.27
2019-03-10T18:35:14.559Z,99216.61
2019-03-10T18:37:43.333Z,99224.05
2019-03-10T18:40:14.720Z,99230.58
2019-03-10T18:42:43.203Z,99236.37
2019-03-10T18:45:14.241Z,99230.11
2019-03-10T18:47:43.077Z,99226.70
2019-03-10T18:50:14.628Z,99228.41
2019-03-10T18:52:43.517Z,99238.37
2019-03-10T18:55:13.716Z,99241.74
2019-03-10T18:57:42.324Z,99255.83
2019-03-10T19:00:14.218Z,99261.98
2019-03-10T19:02:42.733Z,99267.14
2019-03-10T19:05:12.017Z,99261.25
2019-03-10T19:07:40.753Z,99259.47
2019-03-10T19:10:11.283Z,99267.76
2019-03-10T19:12:39.919Z,99270.07
2019-03-10T19:15:14.577Z,99276.54
2019-03-10T19:17:43.131Z,99283.31
2019-03-10T19:20:13.464Z,99294.06
2019-03-10T19:22:42.054Z,99292.28
2019-03-10T19:25:12.386Z,99305.14
2019-03-10T19:27:40.933Z,99310.39
2019-03-10T19:30:22.702Z,99315.34
2019-03-10T19:32:51.260Z,99323.61
2019-03-10T19:35:19.886Z,99337.50
2019-03-10T19:37:48.359Z,99347.38
2019-03-10T19:40:24.178Z,99352.68
2019-03-10T19:42:52.896Z,99362.91
2019-03-10T19:45:23.275Z,99375.45
2019-03-10T19:47:52.171Z,99386.19
2019-03-10T19:50:23.804Z,99395.25
2019-03-10T19:52:52.435Z,99402.84
2019-03-10T19:55:21.151Z,99420.64
2019-03-10T19:57:49.776Z,99432.69
2019-03-10T20:00:19.291Z,99446.20
2019-03-10T20:02:47.927Z,99463.81
2019-03-10T20:05:16.516Z,99469.44
2019-03-10T20:07:46.052Z,99482.42
2019-03-10T20:10:18.462Z,99492.48
2019-03-10T20:12:47.966Z,99509.62
2019-03-10T20:15:21.482Z,99513.89
2019-03-10T20:17:50.432Z,99532.02
2019-03-10T20:20:30.465Z,99548.47
2019-03-10T20:23:01.204Z,99556.05
2019-03-10T20:25:29.421Z,99574.01
2019-03-10T20:27:57.992Z,99578.72
2019-03-10T20:30:27.438Z,99598.14
2019-03-10T20:32:56.030Z,99607.03
2019-03-10T20:35:24.617Z,99613.32
2019-03-10T20:37:53.323Z,99628.94
2019-03-10T20:40:24.187Z,99640.30
2019-03-10T20:42:52.821Z,99653.16
2019-03-10T20:45:24.341Z,99667.01
2019-03-10T20:47:52.453Z,99685.66
2019-03-10T20:50:21.524Z,99695.37
2019-03-10T20:52:50.315Z,99707.56
2019-03-10T20:55:18.855Z,99721.88
2019-03-10T20:57:47.472Z,99730.61
2019-03-10T21:00:22.029Z,99739.05
2019-03-10T21:02:50.636Z,99747.79
2019-03-10T21:05:19.220Z,99764.30
2019-03-10T21:07:48.279Z,99779.44
2019-03-10T21:10:18.915Z,99792.77
2019-03-10T21:12:47.570Z,99799.53
2019-03-10T21:15:18.400Z,99810.23
2019-03-10T21:17:47.048Z,99822.91
2019-03-10T21:20:17.991Z,99827.50
2019-03-10T21:22:47.022Z,99839.36
2019-03-10T21:25:23.391Z,99849.34
2019-03-10T21:27:52.328Z,99854.13
2019-03-10T21:30:23.991Z,99863.70
2019-03-10T21:32:52.697Z,99877.88
2019-03-10T21:35:21.272Z,99879.14
2019-03-10T21:37:49.873Z,99888.38
2019-03-10T21:40:25.688Z,99899.13
2019-03-10T21:42:54.247Z,99905.52
2019-03-10T21:45:22.852Z,99908.64
2019-03-10T21:47:51.462Z,99920.91
2019-03-10T21:50:20.420Z,99930.52
2019-03-10T21:52:49.151Z,99933.78
2019-03-10T21:55:18.224Z,99948.02
2019-03-10T21:57:46.767Z,99949.57
2019-03-10T22:00:21.601Z,99970.41
2019-03-10T22:02:50.216Z,99971.30
2019-03-10T22:05:19.033Z,99983.56
2019-03-10T22:07:48.039Z,99989.52
2019-03-10T22:10:26.890Z,99994.42
2019-03-10T22:12:48.919Z,99993.72
2019-03-10T22:15:18.427Z,100015.27
2019-03-10T22:17:47.119Z,100023.75
2019-03-10T22:20:16.555Z,100026.98
2019-03-10T22:22:49.322Z,100033.40
2019-03-10T22:25:15.583Z,100039.88
2019-03-10T22:27:45.666Z,100042.86
2019-03-10T22:30:18.861Z,100045.02
2019-03-10T22:32:47.379Z,100061.13
2019-03-10T22:35:15.955Z,100061.97
2019-03-10T22:37:44.394Z,100071.92
2019-03-10T22:40:14.909Z,100076.64
2019-03-10T22:42:43.514Z,100085.83
2019-03-10T22:45:17.525Z,100095.66
2019-03-10T22:47:46.084Z,100106.84
2019-03-10T22:50:15.379Z,100118.77
2019-03-10T22:52:43.978Z,100113.53
2019-03-10T22:55:13.581Z,100117.59
2019-03-10T22:57:42.434Z,100126.09
2019-03-10T23:00:23.363Z,100122.83
2019-03-10T23:02:51.938Z,100129.66
2019-03-10T23:05:20.751Z,100143.19
2019-03-10T23:07:49.656Z,100155.11
2019-03-10T23:10:18.751Z,100160.34
2019-03-10T23:12:47.696Z,100171.27
2019-03-10T23:15:16.406Z,100177.19
2019-03-10T23:17:46.023Z,100169.39
2019-03-10T23:20:15.615Z,100177.96
2019-03-10T23:22:44.117Z,100185.02
2019-03-10T23:25:15.345Z,100188.98
2019-03-10T23:27:44.018Z,100196.19
2019-03-10T23:30:17.829Z,100212.69
2019-03-10T23:32:46.383Z,100214.14
2019-03-10T23:35:15.333Z,100207.91
2019-03-10T23:37:44.927Z,100216.77
2019-03-10T23:40:17.221Z,100223.75
2019-03-10T23:42:46.007Z,100225.56
2019-03-10T23:45:16.624Z,100226.56
2019-03-10T23:47:45.105Z,100240.97
2019-03-10T23:50:15.589Z,100244.44
2019-03-10T23:52:44.151Z,100233.95
2019-03-10T23:55:14.027Z,100240.54
2019-03-10T23:57:42.484Z,100250.20
